Red Rock, Oklahoma
Current Conditions -  °F | °C
As of 9:53 PM on Thursday 18 Dec 2014 (Local Time) from KPNC Reporting Station
Overcast Overcast  
Wind Chill:   Ceiling: 1200
Heat Index:   Visibility: 10mi
Dew Point:   Wind: 6mph
Humidity: 86%   Direction: 350°N
Pressure: 30.24"   Gusts: NA
Location:  36.46°N, 97.18°W
Report Text: KPNC 190353Z AUTO 35005KT 10SM OVC012 03/01 A3024 RMK AO2 SLP246 T00280006
Loading
Personal Weather Stations






























Interactive Weather Map New forecast layout! Learn more

10-Day Weather Forecast

Advertisements
Track Severe Weather on mobile